Searchmont, Canada
Current Conditions -  °F | °C
As of 12:55 AM on Tuesday 27 Jan 2015 (Local Time) from KANJ Reporting Station
Broken Clouds Broken Clouds  
Wind Chill:   Ceiling: 10000
Heat Index: 10°   Visibility: 10mi
Dew Point: -3°   Wind: 6mph
Humidity: 56%   Direction: 90°E
Pressure: 30.11"   Gusts: NA
Location:  46.78°N, 84.05°W
Report Text: KANJ 270555Z AUTO 09005KT 10SM BKN100 M12/M19 A3011 RMK AO2 SLP210 T11221194 11117 21122 53015
Loading
Personal Weather Stations






























Interactive Weather Map New forecast layout! Learn more

10-Day Weather Forecast

Advertisements
Track Severe Weather on mobile